This is the latest recevied weather packets stored in our database for station/object PY2KO-3. If no packets are shown the sender has not sent any weather packets the latest 10 day(s).
| Time | Temp. | Humidity | Pressure | Rain* | Wind** | Luminosity | Snow |
|---|---|---|---|---|---|---|---|
| 1777943050 | 18.89° C | 91% | 1024.1 hPa | - | - | - | - |
| 1777942150 | 18.89° C | 92% | 1023.8 hPa | - | - | - | - |
| 1777941250 | 18.89° C | 92% | 1023.8 hPa | - | - | - | - |
| 1777940350 | 18.89° C | 92% | 1023.8 hPa | - | - | - | - |
| 1777939450 | 19.44° C | 90% | 1023.9 hPa | - | - | - | - |
| 1777938550 | 18.89° C | 91% | 1023.9 hPa | - | - | - | - |
| 1777937650 | 18.89° C | 91% | 1023.9 hPa | - | - | - | - |
| 1777936750 | 19.44° C | 89% | 1023.5 hPa | - | - | - | - |
| 1777935850 | 19.44° C | 90% | 1023.2 hPa | - | - | - | - |
| 1777934950 | 19.44° C | 87% | 1022.9 hPa | - | - | - | - |
| 1777934050 | 20° C | 85% | 1022.4 hPa | - | - | - | - |
| 1777933157 | 20° C | 85% | 1022.3 hPa | - | - | - | - |
| 1777932250 | 20° C | 84% | 1022 hPa | - | - | - | - |
| 1777931350 | 20.56° C | 82% | 1021.6 hPa | - | - | - | - |
| 1777930450 | 21.11° C | 82% | 1021.2 hPa | - | - | - | - |
| 1777929550 | 21.11° C | 81% | 1021 hPa | - | - | - | - |
| 1777928650 | 21.11° C | 82% | 1021.4 hPa | - | - | - | - |
| 1777927748 | 21.67° C | 81% | 1021.4 hPa | - | - | - | - |
| 1777926850 | 22.78° C | 78% | 1020.6 hPa | - | - | - | - |
| 1777925950 | 23.33° C | 74% | 1020.1 hPa | - | - | - | - |
| 1777925050 | 25.56° C | 63% | 1018.8 hPa | - | - | - | - |
| 1777924156 | 25.56° C | 63% | 1018.8 hPa | - | - | - | - |
| 1777923252 | 25.56° C | 64% | 1018.8 hPa | - | - | - | - |
| 1777922350 | 26.67° C | 60% | 1018.5 hPa | - | - | - | - |
| 1777921450 | 26.67° C | 56% | 1018.3 hPa | - | - | - | - |
* Rain since midnight (hover to see other rain measurements)
** Current wind speed in m/s (hover to see current wind gust speed)